Time;durP1;ratioP1;P1;durP2;ratioP2;P2;SDS_P1;SDS_P2;PMS_P1;PMS_P2;Temp;Humidity;BMP_temperature;BMP_pressure;BME280_temperature;BME280_humidity;BME280_pressure;Samples;Min_cycle;Max_cycle;Signal;HPM_P1;HPM_P2
2024/01/14 00:01:22;;;;;;;12.90;12.60;;;1.50;99.90;;;;;;5007373;28;20462;-71
2024/01/14 00:03:50;;;;;;;12.63;12.33;;;1.50;99.90;;;;;;5001424;28;20456;-71
2024/01/14 00:06:17;;;;;;;13.50;13.10;;;1.50;99.90;;;;;;5007392;28;20458;-70
2024/01/14 00:08:44;;;;;;;13.07;12.77;;;1.50;99.90;;;;;;5003069;28;20470;-71
2024/01/14 00:11:11;;;;;;;12.73;12.43;;;1.50;99.90;;;;;;5003364;28;20469;-71
2024/01/14 00:13:38;;;;;;;12.40;12.10;;;1.50;99.90;;;;;;4999111;28;20578;-69
2024/01/14 00:16:05;;;;;;;12.90;12.60;;;1.50;99.90;;;;;;5007361;28;20491;-70
2024/01/14 00:18:32;;;;;;;13.23;12.93;;;1.50;99.90;;;;;;5008008;28;20564;-70
2024/01/14 00:21:00;;;;;;;13.00;12.70;;;1.50;99.90;;;;;;5002520;28;20470;-70
2024/01/14 00:23:27;;;;;;;12.40;12.10;;;1.50;99.90;;;;;;5004085;28;20470;-71
2024/01/14 00:25:54;;;;;;;12.63;12.33;;;1.50;99.90;;;;;;5001591;28;20481;-72
2024/01/14 00:28:21;;;;;;;12.00;11.70;;;1.50;99.90;;;;;;5004107;28;20459;-70
2024/01/14 00:30:48;;;;;;;11.63;11.33;;;1.50;99.90;;;;;;5004189;28;20458;-71
2024/01/14 00:33:15;;;;;;;12.00;11.70;;;1.50;99.90;;;;;;5009417;28;20469;-71
2024/01/14 00:35:42;;;;;;;11.20;11.00;;;1.50;99.90;;;;;;4997947;28;20497;-72
2024/01/14 00:38:10;;;;;;;11.73;11.43;;;1.50;99.90;;;;;;5007891;28;20548;-72
2024/01/14 00:40:37;;;;;;;11.20;11.00;;;1.50;99.90;;;;;;5010501;28;20466;-70
2024/01/14 00:43:04;;;;;;;11.40;11.20;;;1.50;99.90;;;;;;5000890;28;20462;-72
2024/01/14 00:45:31;;;;;;;11.37;11.17;;;1.50;99.90;;;;;;5002832;28;20490;-71
2024/01/14 00:47:59;;;;;;;11.60;11.40;;;1.60;99.90;;;;;;5001763;28;21020;-72
2024/01/14 00:50:26;;;;;;;10.60;10.40;;;1.50;99.90;;;;;;5012483;28;21227;-71
2024/01/14 00:52:53;;;;;;;11.10;10.90;;;1.60;99.90;;;;;;4997227;28;20458;-71
2024/01/14 00:55:21;;;;;;;10.90;10.70;;;1.60;99.90;;;;;;5001029;28;20489;-72
2024/01/14 00:57:48;;;;;;;11.20;11.00;;;1.60;99.90;;;;;;5002384;28;20468;-71
2024/01/14 01:00:17;;;;;;;11.00;10.80;;;1.50;99.90;;;;;;5009950;28;20473;-71
2024/01/14 01:02:44;;;;;;;10.80;10.60;;;1.60;99.90;;;;;;4999171;28;20952;-72
2024/01/14 01:05:11;;;;;;;9.70;9.50;;;1.50;99.90;;;;;;5005409;28;20656;-70
2024/01/14 01:07:37;;;;;;;9.90;9.70;;;1.50;99.90;;;;;;5009778;28;20470;-71
2024/01/14 01:10:05;;;;;;;9.20;9.10;;;1.50;99.90;;;;;;5009928;28;20815;-71
2024/01/14 01:12:34;;;;;;;9.23;9.13;;;1.50;99.90;;;;;;5004075;28;20513;-72
2024/01/14 01:15:01;;;;;;;8.50;8.40;;;1.50;99.90;;;;;;5006286;28;20474;-71
2024/01/14 01:17:29;;;;;;;8.10;8.00;;;1.50;99.90;;;;;;5012168;28;20512;-72
2024/01/14 01:19:56;;;;;;;8.20;8.10;;;1.50;99.90;;;;;;5002229;28;20470;-70
2024/01/14 01:22:23;;;;;;;8.13;8.03;;;1.50;99.90;;;;;;4998537;28;20469;-72
2024/01/14 01:24:50;;;;;;;8.33;8.23;;;1.50;99.90;;;;;;4999126;28;20471;-73
2024/01/14 01:27:17;;;;;;;8.20;8.10;;;1.50;99.90;;;;;;5008339;28;20453;-72
2024/01/14 01:29:46;;;;;;;7.00;6.90;;;1.50;99.90;;;;;;5001599;28;20490;-70
2024/01/14 01:32:12;;;;;;;7.47;7.37;;;1.50;99.90;;;;;;5011636;28;20807;-72
2024/01/14 01:34:39;;;;;;;7.90;7.80;;;1.60;99.90;;;;;;5003899;28;20466;-71
2024/01/14 01:37:06;;;;;;;7.00;6.90;;;1.50;99.90;;;;;;4998078;28;20955;-70
2024/01/14 01:39:34;;;;;;;6.73;6.63;;;1.40;99.90;;;;;;5007025;28;20446;-70
2024/01/14 01:42:01;;;;;;;6.47;6.37;;;1.40;99.90;;;;;;5000898;28;20462;-72
2024/01/14 01:44:27;;;;;;;6.80;6.70;;;1.40;99.90;;;;;;4996023;28;21723;-71
2024/01/14 01:46:57;;;;;;;5.93;5.83;;;1.30;99.90;;;;;;5001442;28;20474;-72
2024/01/14 01:49:24;;;;;;;5.70;5.60;;;1.30;99.90;;;;;;5001313;28;20455;-71
2024/01/14 01:51:51;;;;;;;5.60;5.50;;;1.30;99.90;;;;;;4998171;28;21558;-72
2024/01/14 01:54:22;;;;;;;5.90;5.80;;;1.40;99.90;;;;;;5002159;28;20459;-71
2024/01/14 01:56:51;;;;;;;6.30;6.20;;;1.40;99.90;;;;;;5004700;28;20530;-72
2024/01/14 01:59:19;;;;;;;5.90;5.80;;;1.40;99.90;;;;;;4998276;28;20470;-70
2024/01/14 02:01:48;;;;;;;5.73;5.63;;;1.40;99.90;;;;;;5010267;28;20840;-71
2024/01/14 02:04:17;;;;;;;5.90;5.80;;;1.40;99.90;;;;;;5003565;28;20465;-71
2024/01/14 02:06:44;;;;;;;5.40;5.30;;;1.30;99.90;;;;;;4993885;28;20486;-71
2024/01/14 02:09:11;;;;;;;5.43;5.33;;;1.40;99.90;;;;;;5006266;28;20472;-71
2024/01/14 02:11:38;;;;;;;5.57;5.47;;;1.40;99.90;;;;;;5004202;28;20864;-71
2024/01/14 02:14:06;;;;;;;5.80;5.70;;;1.40;99.90;;;;;;5000453;28;21047;-72
2024/01/14 02:16:33;;;;;;;5.90;5.80;;;1.40;99.90;;;;;;5004825;28;20489;-72
2024/01/14 02:19:01;;;;;;;5.33;5.23;;;1.40;99.90;;;;;;5005764;28;20493;-71
2024/01/14 02:21:33;;;;;;;5.50;5.40;;;1.40;99.90;;;;;;5003195;28;20473;-72
2024/01/14 02:24:09;;;;;;;5.77;5.67;;;1.40;99.90;;;;;;5001362;28;20473;-72
2024/01/14 02:26:36;;;;;;;4.77;4.77;;;1.30;99.90;;;;;;5002534;28;20487;-72
2024/01/14 02:29:06;;;;;;;4.87;4.87;;;1.30;99.90;;;;;;4997233;28;20707;-71
2024/01/14 02:31:32;;;;;;;5.20;5.10;;;1.40;99.90;;;;;;5004591;28;20463;-72
2024/01/14 02:34:01;;;;;;;6.00;5.90;;;1.40;99.90;;;;;;5000457;28;20796;-72
2024/01/14 02:36:28;;;;;;;5.40;5.30;;;1.40;99.90;;;;;;5008929;28;20674;-71
2024/01/14 02:38:55;;;;;;;5.63;5.53;;;1.40;99.90;;;;;;5008277;28;20470;-73
2024/01/14 02:41:23;;;;;;;5.73;5.63;;;1.40;99.90;;;;;;5004317;28;20471;-72
2024/01/14 02:43:50;;;;;;;5.90;5.80;;;1.40;99.90;;;;;;5005047;28;20473;-72
2024/01/14 02:46:16;;;;;;;5.37;5.27;;;1.40;99.90;;;;;;4999953;28;20486;-71
2024/01/14 02:48:43;;;;;;;5.57;5.47;;;1.40;99.90;;;;;;4994683;28;20528;-70
2024/01/14 02:51:10;;;;;;;6.00;5.90;;;1.50;99.90;;;;;;5000600;28;21117;-70
2024/01/14 02:53:37;;;;;;;5.80;5.70;;;1.50;99.90;;;;;;4993713;28;20506;-70
2024/01/14 02:56:05;;;;;;;5.83;5.73;;;1.50;99.90;;;;;;5005747;28;21013;-71
2024/01/14 02:58:33;;;;;;;5.80;5.70;;;1.50;99.90;;;;;;5002884;28;20493;-72
2024/01/14 03:00:59;;;;;;;5.63;5.53;;;1.50;99.90;;;;;;5006784;28;20461;-70
2024/01/14 03:03:26;;;;;;;5.63;5.53;;;1.50;99.90;;;;;;5003222;28;20466;-72
2024/01/14 03:05:55;;;;;;;5.90;5.80;;;1.50;99.90;;;;;;4997922;28;20474;-71
2024/01/14 03:08:22;;;;;;;6.20;6.10;;;1.50;99.90;;;;;;5010892;28;20464;-71
2024/01/14 03:10:49;;;;;;;6.60;6.50;;;1.50;99.90;;;;;;5007379;28;20470;-71
2024/01/14 03:13:17;;;;;;;6.80;6.70;;;1.50;99.90;;;;;;5005083;28;20561;-73
2024/01/14 03:15:46;;;;;;;7.50;7.40;;;1.50;99.90;;;;;;4999392;28;20959;-71
2024/01/14 03:18:15;;;;;;;8.40;8.30;;;1.40;99.90;;;;;;5006257;28;20508;-71
2024/01/14 03:20:42;;;;;;;9.60;9.40;;;1.30;99.90;;;;;;5012404;28;20449;-71
2024/01/14 03:23:09;;;;;;;10.70;10.50;;;1.30;99.90;;;;;;4996979;28;20458;-70
2024/01/14 03:25:36;;;;;;;11.77;11.50;;;1.20;99.90;;;;;;5015964;28;20811;-70
2024/01/14 03:28:03;;;;;;;13.77;13.43;;;1.20;99.90;;;;;;5020602;28;20950;-70
2024/01/14 03:30:31;;;;;;;14.90;14.50;;;1.20;99.90;;;;;;5007787;28;20461;-70
2024/01/14 03:32:59;;;;;;;16.90;16.40;;;1.10;99.90;;;;;;5011870;28;20546;-70
2024/01/14 03:35:26;;;;;;;18.23;17.63;;;1.10;99.90;;;;;;5011304;28;20474;-71
2024/01/14 03:37:53;;;;;;;19.03;18.33;;;1.00;99.90;;;;;;5008181;28;20559;-70
2024/01/14 03:40:20;;;;;;;20.03;19.33;;;1.00;99.90;;;;;;5001760;28;20492;-71
2024/01/14 03:42:47;;;;;;;21.10;20.30;;;1.00;99.90;;;;;;5007720;28;20458;-70
2024/01/14 03:45:14;;;;;;;22.23;21.33;;;1.00;99.90;;;;;;5015474;28;20525;-70
2024/01/14 03:47:41;;;;;;;21.50;20.60;;;1.00;99.90;;;;;;5011814;28;20451;-70
2024/01/14 03:50:10;;;;;;;22.40;21.50;;;1.10;99.90;;;;;;5009561;28;20472;-70
2024/01/14 03:52:36;;;;;;;23.23;22.23;;;1.00;99.90;;;;;;5003119;28;20470;-71
2024/01/14 03:55:04;;;;;;;22.17;21.27;;;1.00;99.90;;;;;;5005455;28;20544;-70
2024/01/14 03:57:31;;;;;;;22.43;21.53;;;1.00;99.90;;;;;;5010539;28;20911;-70
2024/01/14 03:59:59;;;;;;;21.73;20.83;;;1.00;99.90;;;;;;5005828;28;20527;-70
2024/01/14 04:02:26;;;;;;;22.77;21.87;;;1.00;99.90;;;;;;5011661;28;20470;-70
2024/01/14 04:04:53;;;;;;;21.33;20.53;;;1.00;99.90;;;;;;5005300;28;20695;-71
2024/01/14 04:07:21;;;;;;;22.30;21.40;;;1.00;99.90;;;;;;5007700;28;20481;-71
2024/01/14 04:09:49;;;;;;;22.73;21.83;;;1.00;99.90;;;;;;5005147;28;20470;-71
2024/01/14 04:12:15;;;;;;;22.70;21.80;;;1.00;99.90;;;;;;5005884;28;20697;-71
2024/01/14 04:14:42;;;;;;;21.50;20.67;;;1.00;99.90;;;;;;5009752;28;20490;-71
2024/01/14 04:17:09;;;;;;;22.67;21.77;;;1.00;99.90;;;;;;5010443;28;20478;-71
2024/01/14 04:19:36;;;;;;;22.20;21.30;;;0.90;99.90;;;;;;5010287;28;20944;-71
2024/01/14 04:22:04;;;;;;;22.80;21.80;;;0.90;99.90;;;;;;5006068;28;20503;-71
2024/01/14 04:24:33;;;;;;;22.30;21.40;;;0.80;99.90;;;;;;5009660;28;20825;-71
2024/01/14 04:27:00;;;;;;;21.80;20.90;;;0.90;99.90;;;;;;5022402;28;20507;-71
2024/01/14 04:29:27;;;;;;;22.47;21.47;;;0.90;99.90;;;;;;5009539;28;20972;-71
2024/01/14 04:31:53;;;;;;;22.73;21.73;;;0.90;99.90;;;;;;5008312;28;20562;-71
2024/01/14 04:34:20;;;;;;;23.10;22.10;;;0.80;99.90;;;;;;5012683;28;20442;-71
2024/01/14 04:36:47;;;;;;;21.53;20.63;;;0.90;99.90;;;;;;5005847;28;21263;-71
2024/01/14 04:39:15;;;;;;;21.33;20.43;;;0.90;99.90;;;;;;5001941;28;20897;-71
2024/01/14 04:41:43;;;;;;;22.80;21.80;;;0.90;99.90;;;;;;5010087;28;20465;-71
2024/01/14 04:44:10;;;;;;;22.60;21.70;;;0.90;99.90;;;;;;5008003;28;20513;-71
2024/01/14 04:46:37;;;;;;;21.80;20.90;;;0.90;99.90;;;;;;5004037;28;20490;-71
2024/01/14 04:49:04;;;;;;;22.33;21.43;;;0.90;99.90;;;;;;5007230;28;21020;-69
2024/01/14 04:51:31;;;;;;;21.83;20.93;;;1.00;99.90;;;;;;5009631;28;20465;-70
2024/01/14 04:53:59;;;;;;;22.17;21.27;;;1.00;99.90;;;;;;4998245;28;20469;-70
2024/01/14 04:56:26;;;;;;;21.83;20.93;;;1.00;99.90;;;;;;5012456;28;21014;-70
2024/01/14 04:58:54;;;;;;;22.43;21.53;;;1.00;99.90;;;;;;5009625;28;20463;-70
2024/01/14 05:01:21;;;;;;;22.07;21.17;;;1.00;99.90;;;;;;5008860;28;20461;-70
2024/01/14 05:03:48;;;;;;;21.63;20.73;;;1.00;99.90;;;;;;5005214;28;20454;-70
2024/01/14 05:06:15;;;;;;;22.07;21.17;;;1.10;99.90;;;;;;4993929;28;20568;-70
2024/01/14 05:08:43;;;;;;;22.30;21.40;;;1.10;99.90;;;;;;5010833;28;20910;-70
2024/01/14 05:11:10;;;;;;;22.23;21.33;;;1.10;99.90;;;;;;5004298;28;20800;-70
2024/01/14 05:13:37;;;;;;;21.43;20.63;;;1.00;99.90;;;;;;5009489;28;20490;-70
2024/01/14 05:16:06;;;;;;;22.90;22.00;;;1.10;99.90;;;;;;5009054;28;20967;-70
2024/01/14 05:18:32;;;;;;;22.03;21.13;;;1.10;99.90;;;;;;5005132;28;20498;-70
2024/01/14 05:21:00;;;;;;;21.37;20.57;;;1.10;99.90;;;;;;5010195;28;20469;-71
2024/01/14 05:23:27;;;;;;;21.40;20.60;;;1.00;99.90;;;;;;5010107;28;20465;-70
2024/01/14 05:25:54;;;;;;;21.30;20.50;;;1.00;99.90;;;;;;5004402;28;20462;-70
2024/01/14 05:28:21;;;;;;;21.03;20.23;;;1.00;99.90;;;;;;5008220;28;20807;-71
2024/01/14 05:30:48;;;;;;;21.60;20.70;;;1.00;99.90;;;;;;5018707;28;20467;-71
2024/01/14 05:33:16;;;;;;;21.43;20.63;;;1.00;99.90;;;;;;5010820;28;20475;-71
2024/01/14 05:35:44;;;;;;;20.57;19.77;;;1.00;99.90;;;;;;5001507;28;20461;-71
2024/01/14 05:38:11;;;;;;;21.00;20.20;;;1.00;99.90;;;;;;5007422;28;20492;-71
2024/01/14 05:40:37;;;;;;;21.00;20.20;;;1.00;99.90;;;;;;5002788;28;20474;-71
2024/01/14 05:43:04;;;;;;;20.10;19.40;;;1.00;99.90;;;;;;5008782;28;20548;-71
2024/01/14 05:45:31;;;;;;;20.70;19.90;;;0.90;99.90;;;;;;5007362;28;20485;-71
2024/01/14 05:47:58;;;;;;;20.10;19.40;;;0.90;99.90;;;;;;5008081;28;20458;-71
2024/01/14 05:50:26;;;;;;;19.73;19.03;;;0.90;99.90;;;;;;5009326;28;20965;-71
2024/01/14 05:52:53;;;;;;;19.50;18.80;;;0.90;99.90;;;;;;5000627;28;20469;-71
2024/01/14 05:55:21;;;;;;;18.97;18.27;;;0.90;99.90;;;;;;5005426;28;20510;-70
2024/01/14 05:57:48;;;;;;;19.40;18.70;;;0.90;99.90;;;;;;5006436;28;20850;-72
2024/01/14 06:00:15;;;;;;;20.07;19.37;;;0.90;99.90;;;;;;5002093;28;20490;-72
2024/01/14 06:02:43;;;;;;;20.33;19.60;;;0.90;99.90;;;;;;5005577;28;20463;-72
2024/01/14 06:05:10;;;;;;;19.63;18.93;;;0.90;99.90;;;;;;5008892;28;20498;-72
2024/01/14 06:07:38;;;;;;;19.57;18.87;;;0.90;99.90;;;;;;5004172;28;20969;-72
2024/01/14 06:10:05;;;;;;;19.00;18.30;;;0.90;99.90;;;;;;5005259;28;20466;-73
2024/01/14 06:12:32;;;;;;;19.17;18.47;;;0.90;99.90;;;;;;5005170;28;20464;-72
2024/01/14 06:14:59;;;;;;;19.87;19.17;;;0.90;99.90;;;;;;5005913;28;20515;-72
2024/01/14 06:17:26;;;;;;;20.80;20.00;;;0.90;99.90;;;;;;5004458;28;20492;-72
2024/01/14 06:19:55;;;;;;;20.30;19.50;;;1.00;99.90;;;;;;5008089;28;20493;-72
2024/01/14 06:22:22;;;;;;;20.10;19.30;;;1.00;99.90;;;;;;5002502;28;20516;-71
2024/01/14 06:24:52;;;;;;;20.43;19.63;;;1.00;99.90;;;;;;5008187;28;20454;-70
2024/01/14 06:27:19;;;;;;;20.27;19.47;;;0.90;99.90;;;;;;5000833;28;21450;-71
2024/01/14 06:29:46;;;;;;;19.67;18.97;;;0.90;99.90;;;;;;5005992;28;20463;-71
2024/01/14 06:32:13;;;;;;;19.33;18.63;;;0.90;99.90;;;;;;5007479;28;20454;-71
2024/01/14 06:34:42;;;;;;;20.10;19.40;;;1.00;99.90;;;;;;5006904;28;20549;-70
2024/01/14 06:37:10;;;;;;;19.70;19.00;;;0.90;99.90;;;;;;4997558;28;20530;-71
2024/01/14 06:39:36;;;;;;;19.87;19.17;;;0.90;99.90;;;;;;5015093;28;20773;-72
2024/01/14 06:42:05;;;;;;;19.30;18.60;;;1.00;99.90;;;;;;5006579;28;20470;-71
2024/01/14 06:44:32;;;;;;;19.53;18.83;;;1.00;99.90;;;;;;5010306;28;20888;-71
2024/01/14 06:46:59;;;;;;;18.80;18.10;;;0.90;99.90;;;;;;5008778;28;21015;-71
2024/01/14 06:49:26;;;;;;;18.90;18.20;;;1.00;99.90;;;;;;5012751;28;20884;-71
2024/01/14 06:51:53;;;;;;;17.40;16.80;;;1.00;99.90;;;;;;5000918;28;20480;-71
2024/01/14 06:54:20;;;;;;;18.20;17.60;;;1.00;99.90;;;;;;5001145;28;20992;-71
2024/01/14 06:56:48;;;;;;;18.10;17.50;;;1.00;99.90;;;;;;4999928;28;20591;-71
2024/01/14 06:59:19;;;;;;;16.93;16.43;;;1.00;99.90;;;;;;5005759;28;20466;-71
2024/01/14 07:01:46;;;;;;;17.13;16.53;;;0.90;99.90;;;;;;5007084;28;20488;-71
2024/01/14 07:04:14;;;;;;;16.73;16.23;;;1.00;99.90;;;;;;5012318;28;20911;-71
2024/01/14 07:06:41;;;;;;;17.10;16.50;;;1.00;99.90;;;;;;5013741;28;20461;-70
2024/01/14 07:09:10;;;;;;;16.20;15.70;;;1.00;99.90;;;;;;5007306;28;20495;-71
2024/01/14 07:11:37;;;;;;;15.70;15.20;;;1.00;99.90;;;;;;5001831;28;20592;-71
2024/01/14 07:14:04;;;;;;;15.40;14.90;;;1.00;99.90;;;;;;5012387;28;20500;-71
2024/01/14 07:16:32;;;;;;;15.57;15.07;;;0.90;99.90;;;;;;5014552;28;20869;-71
2024/01/14 07:18:58;;;;;;;15.43;14.97;;;0.90;99.90;;;;;;5027932;28;21010;-71
2024/01/14 07:21:25;;;;;;;14.57;14.17;;;0.90;99.90;;;;;;5023581;28;20552;-71
2024/01/14 07:23:52;;;;;;;15.00;14.60;;;0.90;99.90;;;;;;5004302;28;20889;-71
2024/01/14 07:26:20;;;;;;;14.87;14.47;;;1.00;99.90;;;;;;5010608;28;20474;-71
2024/01/14 07:28:48;;;;;;;14.57;14.17;;;0.90;99.90;;;;;;5010268;28;20458;-71
2024/01/14 07:31:21;;;;;;;14.57;14.17;;;0.90;99.90;;;;;;5012362;28;20475;-71
2024/01/14 07:33:49;;;;;;;14.63;14.23;;;0.90;99.90;;;;;;5009282;28;20461;-71
2024/01/14 07:36:16;;;;;;;13.73;13.33;;;0.90;99.90;;;;;;5018589;28;20454;-71
2024/01/14 07:38:43;;;;;;;14.07;13.67;;;0.90;99.90;;;;;;5021753;28;21227;-70
2024/01/14 07:41:13;;;;;;;13.70;13.30;;;0.90;99.90;;;;;;5005321;28;20466;-71
2024/01/14 07:43:40;;;;;;;13.60;13.20;;;0.80;99.90;;;;;;5006288;28;20918;-71
2024/01/14 07:46:07;;;;;;;13.10;12.80;;;0.90;99.90;;;;;;5009181;28;20489;-71
2024/01/14 07:48:35;;;;;;;12.30;12.00;;;0.80;99.90;;;;;;5007532;28;20465;-72
2024/01/14 07:51:04;;;;;;;12.33;12.03;;;0.80;99.90;;;;;;5010316;28;20912;-71
2024/01/14 07:53:31;;;;;;;11.70;11.40;;;0.80;99.90;;;;;;5008490;28;20845;-71
2024/01/14 07:56:02;;;;;;;12.23;11.93;;;0.80;99.90;;;;;;5008260;28;20469;-72
2024/01/14 07:58:29;;;;;;;12.13;11.83;;;0.80;99.90;;;;;;5014140;28;20489;-72
2024/01/14 08:00:55;;;;;;;11.70;11.40;;;0.90;99.90;;;;;;5008135;28;20566;-71
2024/01/14 08:03:23;;;;;;;12.50;12.20;;;0.90;99.90;;;;;;5005605;28;20499;-71
2024/01/14 08:05:49;;;;;;;10.97;10.77;;;0.90;99.90;;;;;;5014005;28;20453;-72
2024/01/14 08:08:18;;;;;;;11.00;10.80;;;0.90;99.90;;;;;;5012923;28;21030;-71
2024/01/14 08:10:48;;;;;;;11.00;10.80;;;0.90;99.90;;;;;;5006221;28;20466;-71
2024/01/14 08:13:18;;;;;;;11.00;10.80;;;1.00;99.90;;;;;;5007293;28;20508;-72
2024/01/14 08:15:45;;;;;;;9.90;9.70;;;0.90;99.90;;;;;;5006977;28;20552;-72
2024/01/14 08:18:12;;;;;;;9.47;9.27;;;0.90;99.90;;;;;;5002430;28;20501;-72
2024/01/14 08:20:39;;;;;;;9.60;9.40;;;0.90;99.90;;;;;;5007824;28;20469;-72
2024/01/14 08:23:06;;;;;;;9.30;9.10;;;0.90;99.90;;;;;;5012135;28;20600;-71
2024/01/14 08:25:34;;;;;;;9.33;9.13;;;0.80;99.90;;;;;;5001871;28;20577;-71
2024/01/14 08:28:01;;;;;;;9.10;8.93;;;0.80;99.90;;;;;;5016540;28;20540;-71
2024/01/14 08:30:28;;;;;;;10.20;10.00;;;0.90;99.90;;;;;;5002896;28;21296;-73
2024/01/14 08:32:57;;;;;;;9.40;9.20;;;1.00;99.90;;;;;;5004759;28;20473;-71
2024/01/14 08:35:24;;;;;;;10.50;10.30;;;0.90;99.90;;;;;;5008344;28;20477;-71
2024/01/14 08:37:51;;;;;;;9.43;9.23;;;1.00;99.90;;;;;;5010202;28;20899;-71
2024/01/14 08:40:18;;;;;;;9.80;9.60;;;1.00;99.90;;;;;;5000603;28;20489;-72
2024/01/14 08:42:48;;;;;;;8.93;8.83;;;0.90;99.90;;;;;;4999489;28;20556;-72
2024/01/14 08:45:16;;;;;;;9.70;9.50;;;0.90;99.90;;;;;;5011470;28;20481;-72
2024/01/14 08:47:43;;;;;;;9.50;9.30;;;1.00;99.90;;;;;;5004737;28;20470;-72
2024/01/14 08:50:11;;;;;;;9.30;9.10;;;0.90;99.90;;;;;;5010728;28;20471;-72
2024/01/14 08:52:38;;;;;;;8.37;8.27;;;1.00;99.90;;;;;;5008602;28;20454;-71
2024/01/14 08:55:05;;;;;;;10.50;10.30;;;1.00;99.90;;;;;;5003125;28;20462;-72
2024/01/14 08:57:32;;;;;;;12.10;11.80;;;1.00;99.90;;;;;;5002428;28;20470;-71
2024/01/14 09:00:01;;;;;;;12.83;12.53;;;0.90;99.90;;;;;;5010245;28;20497;-71
2024/01/14 09:02:27;;;;;;;14.97;14.57;;;0.80;99.90;;;;;;5005738;28;20470;-70
2024/01/14 09:04:55;;;;;;;15.37;14.87;;;0.80;99.90;;;;;;5010149;28;20533;-71
2024/01/14 09:07:22;;;;;;;16.30;15.80;;;0.60;99.90;;;;;;5009815;28;20470;-71
2024/01/14 09:09:49;;;;;;;16.80;16.20;;;0.70;99.90;;;;;;5011830;28;20466;-71
2024/01/14 09:12:16;;;;;;;16.23;15.73;;;0.70;99.90;;;;;;5009900;28;20639;-71
2024/01/14 09:14:43;;;;;;;17.67;17.07;;;0.60;99.90;;;;;;4996849;28;20521;-70
2024/01/14 09:17:12;;;;;;;18.80;18.10;;;0.70;99.90;;;;;;5006783;28;20466;-70
2024/01/14 09:19:40;;;;;;;17.80;17.20;;;0.70;99.90;;;;;;5002521;28;20504;-71
2024/01/14 09:22:07;;;;;;;17.13;16.53;;;0.70;99.90;;;;;;5008017;28;20972;-70
2024/01/14 09:24:34;;;;;;;17.17;16.57;;;0.60;99.90;;;;;;5001068;28;20462;-71
2024/01/14 09:27:01;;;;;;;17.27;16.67;;;0.60;99.90;;;;;;5009571;28;20553;-70
2024/01/14 09:29:28;;;;;;;17.80;17.20;;;0.70;99.90;;;;;;5005569;28;20474;-71
2024/01/14 09:31:56;;;;;;;18.20;17.50;;;0.70;99.90;;;;;;5012241;28;21028;-71
2024/01/14 09:34:24;;;;;;;18.40;17.70;;;0.70;99.90;;;;;;5016023;28;20458;-71
2024/01/14 09:36:51;;;;;;;18.90;18.20;;;0.70;99.90;;;;;;5003990;28;20509;-70
2024/01/14 09:39:18;;;;;;;18.97;18.27;;;0.80;99.90;;;;;;4994367;28;20490;-71
2024/01/14 09:41:53;;;;;;;19.53;18.73;;;0.70;99.90;;;;;;4990685;28;20855;-71
2024/01/14 09:44:21;;;;;;;21.40;20.40;;;0.80;99.90;;;;;;5010932;28;20485;-71
2024/01/14 09:46:48;;;;;;;20.87;19.97;;;0.80;99.90;;;;;;5011478;28;20517;-70
2024/01/14 09:49:16;;;;;;;21.40;20.50;;;0.80;99.90;;;;;;5009761;28;20462;-70
2024/01/14 09:51:47;;;;;;;21.27;20.30;;;0.80;99.90;;;;;;5003744;28;20473;-70
2024/01/14 09:54:14;;;;;;;20.80;19.90;;;0.80;99.90;;;;;;5005608;28;20461;-69
2024/01/14 09:56:42;;;;;;;20.80;19.90;;;0.80;99.90;;;;;;5004798;28;20462;-69
2024/01/14 09:59:12;;;;;;;20.93;20.03;;;0.80;99.90;;;;;;5003444;28;21105;-69
2024/01/14 10:01:41;;;;;;;22.10;21.00;;;0.80;99.90;;;;;;5003278;28;20472;-69
2024/01/14 10:04:09;;;;;;;21.50;20.40;;;0.80;99.90;;;;;;5007993;28;20876;-69
2024/01/14 10:06:36;;;;;;;21.03;19.93;;;0.80;99.90;;;;;;5002822;28;20469;-70
2024/01/14 10:09:05;;;;;;;22.67;21.47;;;0.80;99.90;;;;;;5004020;28;20471;-70
2024/01/14 10:11:32;;;;;;;22.10;21.00;;;0.80;99.90;;;;;;5005297;28;20883;-71
2024/01/14 10:13:59;;;;;;;22.30;21.10;;;0.70;99.90;;;;;;5007470;28;22128;-70
2024/01/14 10:16:26;;;;;;;21.63;20.53;;;0.80;99.90;;;;;;5006418;28;20474;-71
2024/01/14 10:18:56;;;;;;;22.67;21.47;;;0.80;99.90;;;;;;5003954;28;20490;-70
2024/01/14 10:21:24;;;;;;;21.87;20.77;;;0.80;99.90;;;;;;5002931;28;20570;-70
2024/01/14 10:23:51;;;;;;;22.60;21.50;;;0.80;99.90;;;;;;5004779;28;20470;-70
2024/01/14 10:26:23;;;;;;;21.93;20.83;;;0.80;99.90;;;;;;5001107;28;20472;-71
2024/01/14 10:28:50;;;;;;;21.10;20.10;;;0.80;99.90;;;;;;5004134;28;21528;-70
2024/01/14 10:31:18;;;;;;;21.07;20.07;;;0.80;99.90;;;;;;4996490;28;20466;-72
2024/01/14 10:33:46;;;;;;;21.43;20.43;;;0.80;99.90;;;;;;4999273;28;20477;-73
2024/01/14 10:36:13;;;;;;;21.57;20.57;;;0.80;99.90;;;;;;4996811;28;20470;-70
2024/01/14 10:38:39;;;;;;;21.13;20.13;;;0.70;99.90;;;;;;5013032;28;20478;-73
2024/01/14 10:41:07;;;;;;;20.67;19.77;;;0.80;99.90;;;;;;5005106;28;20458;-70
2024/01/14 10:43:36;;;;;;;20.70;19.80;;;0.80;99.90;;;;;;5008733;28;20454;-72
2024/01/14 10:46:06;;;;;;;20.60;19.70;;;0.90;99.90;;;;;;5006960;28;20486;-71
2024/01/14 10:48:39;;;;;;;21.23;20.23;;;0.90;99.90;;;;;;5004474;28;20469;-73
2024/01/14 10:51:10;;;;;;;22.43;21.33;;;1.00;99.90;;;;;;5007940;28;20470;-72
2024/01/14 10:53:42;;;;;;;22.57;21.47;;;1.00;99.90;;;;;;5001302;28;20478;-72
2024/01/14 10:56:13;;;;;;;22.60;21.50;;;0.90;99.90;;;;;;5004526;28;20856;-72
2024/01/14 10:58:43;;;;;;;21.37;20.37;;;0.90;99.90;;;;;;5005851;28;20867;-72
2024/01/14 11:01:13;;;;;;;21.37;20.33;;;0.90;99.90;;;;;;5007124;28;21902;-73
2024/01/14 11:03:40;;;;;;;22.37;21.27;;;0.90;99.90;;;;;;5007153;28;20454;-72
2024/01/14 11:06:08;;;;;;;22.83;21.70;;;0.90;99.90;;;;;;5007170;28;20545;-73
2024/01/14 11:08:37;;;;;;;23.27;22.00;;;0.90;99.90;;;;;;5006857;28;20464;-71
2024/01/14 11:11:05;;;;;;;23.40;22.10;;;0.80;99.90;;;;;;4999249;28;20804;-74
2024/01/14 11:13:38;;;;;;;23.67;22.33;;;0.70;99.90;;;;;;5008123;28;20480;-71
2024/01/14 11:16:14;;;;;;;25.30;23.80;;;0.70;99.90;;;;;;5016198;28;20485;-71
2024/01/14 11:18:48;;;;;;;24.60;23.20;;;0.80;99.90;;;;;;5007647;28;20489;-72
2024/01/14 11:21:30;;;;;;;24.60;23.20;;;0.80;99.90;;;;;;5007652;28;20973;-72
2024/01/14 11:23:58;;;;;;;24.90;23.50;;;0.80;99.90;;;;;;5007855;28;20812;-74
2024/01/14 11:26:25;;;;;;;24.40;23.00;;;0.80;99.90;;;;;;5016087;28;20469;-72
2024/01/14 11:28:54;;;;;;;24.47;23.07;;;0.80;99.90;;;;;;5001170;28;20472;-70
2024/01/14 11:31:43;;;;;;;23.77;22.37;;;0.90;99.90;;;;;;5002216;28;20496;-72
2024/01/14 11:34:46;;;;;;;23.53;22.23;;;0.90;99.90;;;;;;4998878;28;20466;-73
2024/01/14 11:37:40;;;;;;;22.57;21.27;;;0.90;99.90;;;;;;5001750;28;20462;-74
2024/01/14 11:40:25;;;;;;;21.67;20.50;;;0.90;99.90;;;;;;5008166;28;20501;-73
2024/01/14 11:43:02;;;;;;;21.87;20.67;;;1.00;99.90;;;;;;5006154;28;20546;-74
2024/01/14 11:45:36;;;;;;;21.83;20.67;;;1.00;99.90;;;;;;4997394;28;20494;-74
2024/01/14 11:48:05;;;;;;;20.87;19.77;;;1.00;99.90;;;;;;5011311;28;20827;-76
2024/01/14 11:50:36;;;;;;;20.27;19.27;;;1.00;99.90;;;;;;5008619;28;20975;-71
2024/01/14 11:53:04;;;;;;;20.80;19.77;;;0.90;99.90;;;;;;5005577;28;20474;-72
2024/01/14 11:55:32;;;;;;;20.50;19.50;;;1.00;99.90;;;;;;5011486;28;20466;-74
2024/01/14 11:58:10;;;;;;;20.80;19.80;;;0.90;99.90;;;;;;5010755;28;20469;-71
2024/01/14 12:00:39;;;;;;;20.60;19.60;;;1.00;99.90;;;;;;5004975;28;20599;-75
2024/01/14 12:03:07;;;;;;;20.17;19.17;;;1.00;99.90;;;;;;5008300;28;20473;-71
2024/01/14 12:05:37;;;;;;;20.07;19.17;;;1.10;99.90;;;;;;5011642;28;20461;-73
2024/01/14 12:08:04;;;;;;;20.10;19.20;;;1.10;99.90;;;;;;5004615;28;20473;-71
2024/01/14 12:10:32;;;;;;;19.17;18.37;;;1.10;99.90;;;;;;5011509;28;20458;-70
2024/01/14 12:13:01;;;;;;;19.30;18.50;;;1.20;99.90;;;;;;5003646;28;21796;-72
2024/01/14 12:15:28;;;;;;;18.17;17.37;;;1.20;99.90;;;;;;5006391;28;20545;-71
2024/01/14 12:17:56;;;;;;;18.20;17.50;;;1.10;99.90;;;;;;5013059;28;20485;-71
2024/01/14 12:20:24;;;;;;;17.43;16.73;;;1.10;99.90;;;;;;5017339;28;20505;-72
2024/01/14 12:22:59;;;;;;;17.20;16.50;;;1.20;99.90;;;;;;5009488;28;20959;-70
2024/01/14 12:25:26;;;;;;;17.10;16.40;;;1.10;99.90;;;;;;5014526;28;20476;-72
2024/01/14 12:27:53;;;;;;;15.50;14.90;;;1.10;99.90;;;;;;5007442;28;20472;-71
2024/01/14 12:30:29;;;;;;;15.07;14.57;;;1.10;99.90;;;;;;5003095;28;20465;-70
2024/01/14 12:32:57;;;;;;;14.70;14.20;;;1.10;99.90;;;;;;5001210;28;20501;-72
2024/01/14 12:35:35;;;;;;;14.10;13.60;;;1.10;99.90;;;;;;5010333;28;20465;-71
2024/01/14 12:38:04;;;;;;;14.10;13.60;;;1.20;99.90;;;;;;5013784;28;20456;-71
2024/01/14 12:40:31;;;;;;;13.90;13.40;;;1.20;99.90;;;;;;5014356;28;20506;-72
2024/01/14 12:42:59;;;;;;;14.10;13.60;;;1.20;99.90;;;;;;5007270;28;20466;-75
2024/01/14 12:45:27;;;;;;;13.63;13.23;;;1.20;99.90;;;;;;5009732;28;20481;-73